Time;durP1;ratioP1;P1;durP2;ratioP2;P2;SDS_P1;SDS_P2;PMS_P1;PMS_P2;Temp;Humidity;BMP_temperature;BMP_pressure;BME280_temperature;BME280_humidity;BME280_pressure;Samples;Min_cycle;Max_cycle;Signal;HPM_P1;HPM_P2
2022/10/15 00:02:07;;;;;;;;;;;;;;;13.89;70.58;100719.66;5046574;28;19986;-65
2022/10/15 00:04:33;;;;;;;;;;;;;;;13.88;70.56;100728.53;5043823;28;19925;-64
2022/10/15 00:06:58;;;;;;;;;;;;;;;13.86;70.63;100715.44;5042758;28;19916;-65
2022/10/15 00:09:24;;;;;;;;;;;;;;;13.85;70.65;100711.09;5042248;28;19983;-65
2022/10/15 00:11:50;;;;;;;;;;;;;;;13.83;70.59;100715.66;5045539;28;19925;-65
2022/10/15 00:14:15;;;;;;;;;;;;;;;13.82;70.75;100715.78;5045924;28;20003;-64
2022/10/15 00:16:40;;;;;;;;;;;;;;;13.82;70.70;100718.44;5045982;28;19925;-63
2022/10/15 00:19:06;;;;;;;;;;;;;;;13.81;70.69;100712.28;5045943;28;19943;-65
2022/10/15 00:21:31;;;;;;;;;;;;;;;13.80;70.57;100710.59;5050117;28;19927;-65
2022/10/15 00:23:56;;;;;;;;;;;;;;;13.79;70.74;100705.41;5048884;28;19960;-64
2022/10/15 00:26:23;;;;;;;;;;;;;;;13.77;70.76;100702.88;5042659;28;20313;-65
2022/10/15 00:28:50;;;;;;;;;;;;;;;13.75;70.80;100702.16;5043583;28;19970;-65
2022/10/15 00:31:16;;;;;;;;;;;;;;;13.75;70.75;100701.28;5041386;28;20012;-66
2022/10/15 00:33:42;;;;;;;;;;;;;;;13.74;70.89;100702.25;5044714;28;20184;-62
2022/10/15 00:36:10;;;;;;;;;;;;;;;13.72;70.64;100705.00;5045791;28;19928;-62
2022/10/15 00:38:35;;;;;;;;;;;;;;;13.71;70.65;100709.44;5050492;28;20408;-63
2022/10/15 00:41:01;;;;;;;;;;;;;;;13.69;70.65;100706.06;5047206;28;19921;-61
2022/10/15 00:43:44;;;;;;;;;;;;;;;13.69;70.69;100700.78;5045402;28;20077;-59
2022/10/15 00:46:28;;;;;;;;;;;;;;;13.67;70.68;100692.13;5035572;28;20358;-61
2022/10/15 00:48:55;;;;;;;;;;;;;;;13.66;70.79;100700.16;5049308;28;19964;-59
2022/10/15 00:51:21;;;;;;;;;;;;;;;13.65;70.87;100694.03;5046625;28;19952;-58
2022/10/15 00:53:48;;;;;;;;;;;;;;;13.65;70.77;100701.97;5049061;28;20513;-60
2022/10/15 00:56:14;;;;;;;;;;;;;;;13.64;70.87;100695.00;5042842;28;20378;-61
2022/10/15 00:58:40;;;;;;;;;;;;;;;13.66;70.78;100686.94;5051372;28;20400;-64
2022/10/15 01:01:06;;;;;;;;;;;;;;;13.66;70.71;100682.50;5046516;28;19928;-65
2022/10/15 01:03:34;;;;;;;;;;;;;;;13.66;70.70;100681.66;5044889;28;20451;-66
2022/10/15 01:05:59;;;;;;;;;;;;;;;13.67;70.86;100684.19;5044043;28;20059;-65
2022/10/15 01:08:25;;;;;;;;;;;;;;;13.67;70.90;100680.69;5044678;28;20007;-65
2022/10/15 01:10:50;;;;;;;;;;;;;;;13.67;70.76;100683.34;5047107;28;19928;-66
2022/10/15 01:13:21;;;;;;;;;;;;;;;13.68;70.75;100679.75;5047725;28;19924;-65
2022/10/15 01:15:58;;;;;;;;;;;;;;;13.66;70.82;100669.28;5043819;28;20441;-65
2022/10/15 01:18:40;;;;;;;;;;;;;;;13.67;70.83;100664.81;5041724;28;20006;-64
2022/10/15 01:21:11;;;;;;;;;;;;;;;13.66;71.01;100666.66;5045759;28;20431;-65
2022/10/15 01:23:51;;;;;;;;;;;;;;;13.67;70.94;100664.81;5046293;28;19975;-67
2022/10/15 01:26:35;;;;;;;;;;;;;;;13.67;70.90;100662.19;5048198;28;19921;-66
2022/10/15 01:29:20;;;;;;;;;;;;;;;13.66;71.06;100661.34;5043855;28;20037;-64
2022/10/15 01:31:58;;;;;;;;;;;;;;;13.66;70.95;100660.50;5044455;28;20007;-66
2022/10/15 01:34:39;;;;;;;;;;;;;;;13.67;70.89;100659.53;5040555;28;20365;-65
2022/10/15 01:37:07;;;;;;;;;;;;;;;13.67;70.95;100657.75;5039300;28;20780;-65
2022/10/15 01:39:35;;;;;;;;;;;;;;;13.68;71.07;100658.59;5036266;28;19925;-65
2022/10/15 01:42:06;;;;;;;;;;;;;;;13.68;71.12;100645.38;5043201;28;19975;-66
2022/10/15 01:44:39;;;;;;;;;;;;;;;13.68;71.19;100646.22;5041098;28;20401;-64
2022/10/15 01:47:15;;;;;;;;;;;;;;;13.69;71.01;100644.41;5047381;28;19921;-65
2022/10/15 01:49:42;;;;;;;;;;;;;;;13.68;71.05;100643.59;5045929;28;19931;-64
2022/10/15 01:52:17;;;;;;;;;;;;;;;13.68;71.03;100642.72;5048230;28;20419;-64
2022/10/15 01:54:44;;;;;;;;;;;;;;;13.68;71.22;100643.59;5046002;28;20390;-66
2022/10/15 01:57:11;;;;;;;;;;;;;;;13.69;71.30;100639.94;5047772;28;20359;-65
2022/10/15 01:59:36;;;;;;;;;;;;;;;13.68;71.24;100638.28;5048901;28;19916;-65
2022/10/15 02:02:02;;;;;;;;;;;;;;;13.69;71.11;100639.94;5049871;28;19929;-64
2022/10/15 02:04:29;;;;;;;;;;;;;;;13.71;71.27;100637.22;5047591;28;19975;-64
2022/10/15 02:06:57;;;;;;;;;;;;;;;13.71;71.10;100631.94;5052635;28;19916;-64
2022/10/15 02:09:29;;;;;;;;;;;;;;;13.70;71.29;100631.06;5050274;28;20401;-65
2022/10/15 02:12:04;;;;;;;;;;;;;;;13.71;71.34;100622.19;5046324;28;19916;-64
2022/10/15 02:14:35;;;;;;;;;;;;;;;13.72;71.40;100620.41;5043688;28;19925;-62
2022/10/15 02:17:08;;;;;;;;;;;;;;;13.72;71.24;100623.88;5047592;28;19917;-64
2022/10/15 02:19:52;;;;;;;;;;;;;;;13.74;71.35;100618.50;5050291;28;19920;-61
2022/10/15 02:22:18;;;;;;;;;;;;;;;13.75;71.30;100612.25;5047133;28;19916;-65
2022/10/15 02:24:51;;;;;;;;;;;;;;;13.76;71.41;100613.06;5043894;28;19925;-65
2022/10/15 02:27:17;;;;;;;;;;;;;;;13.77;71.31;100604.19;5048442;28;20383;-64
2022/10/15 02:29:43;;;;;;;;;;;;;;;13.77;71.45;100598.91;5048524;28;20011;-64
2022/10/15 02:32:10;;;;;;;;;;;;;;;13.78;71.53;100601.41;5044997;28;20015;-64
2022/10/15 02:34:35;;;;;;;;;;;;;;;13.78;71.57;100590.00;5042163;28;20313;-64
2022/10/15 02:37:02;;;;;;;;;;;;;;;13.78;71.45;100593.50;5053202;28;19928;-65
2022/10/15 02:39:28;;;;;;;;;;;;;;;13.79;71.49;100589.88;5047793;28;19928;-65
2022/10/15 02:41:54;;;;;;;;;;;;;;;13.78;71.65;100590.00;5042458;28;19917;-65
2022/10/15 02:44:19;;;;;;;;;;;;;;;13.78;71.66;100585.56;5044045;28;20382;-63
2022/10/15 02:46:45;;;;;;;;;;;;;;;13.78;71.67;100582.91;5045235;28;20007;-65
2022/10/15 02:49:10;;;;;;;;;;;;;;;13.79;71.72;100581.94;5054410;28;19924;-64
2022/10/15 02:51:36;;;;;;;;;;;;;;;13.78;71.70;100580.25;5047155;28;19921;-65
2022/10/15 02:54:02;;;;;;;;;;;;;;;13.79;71.79;100576.66;5047601;28;19920;-66
2022/10/15 02:56:28;;;;;;;;;;;;;;;13.78;71.84;100585.56;5049099;28;20449;-65
2022/10/15 02:58:53;;;;;;;;;;;;;;;13.79;71.88;100581.13;5049419;28;20024;-65
2022/10/15 03:01:18;;;;;;;;;;;;;;;13.77;71.93;100583.88;5044915;28;19917;-65
2022/10/15 03:03:44;;;;;;;;;;;;;;;13.77;71.84;100578.56;5050620;28;19932;-63
2022/10/15 03:06:09;;;;;;;;;;;;;;;13.77;71.94;100577.75;5050452;28;20028;-64
2022/10/15 03:08:34;;;;;;;;;;;;;;;13.76;72.10;100573.41;5049369;28;20043;-64
2022/10/15 03:11:00;;;;;;;;;;;;;;;13.76;72.16;100565.47;5050050;28;19968;-66
2022/10/15 03:13:26;;;;;;;;;;;;;;;13.77;72.14;100567.16;5049232;28;20003;-63
2022/10/15 03:15:51;;;;;;;;;;;;;;;13.74;72.20;100560.31;5053510;28;20027;-66
2022/10/15 03:18:16;;;;;;;;;;;;;;;13.75;72.21;100561.16;5045943;28;19936;-65
2022/10/15 03:20:42;;;;;;;;;;;;;;;13.75;72.13;100561.16;5046530;28;19929;-64
2022/10/15 03:23:07;;;;;;;;;;;;;;;13.75;72.36;100555.84;5046915;28;19924;-64
2022/10/15 03:25:32;;;;;;;;;;;;;;;13.74;72.30;100552.38;5051249;28;19925;-63
2022/10/15 03:27:58;;;;;;;;;;;;;;;13.74;72.23;100547.09;5050343;28;20023;-64
2022/10/15 03:30:23;;;;;;;;;;;;;;;13.75;72.27;100550.56;5047575;28;19929;-64
2022/10/15 03:32:48;;;;;;;;;;;;;;;13.74;72.46;100551.53;5048695;28;20418;-64
2022/10/15 03:35:14;;;;;;;;;;;;;;;13.74;72.52;100552.38;5044453;28;19925;-64
2022/10/15 03:37:39;;;;;;;;;;;;;;;13.75;72.57;100551.44;5042564;28;19924;-64
2022/10/15 03:40:04;;;;;;;;;;;;;;;13.75;72.46;100547.91;5045802;28;20345;-62
2022/10/15 03:42:30;;;;;;;;;;;;;;;13.76;72.45;100549.63;5050700;28;19959;-62
2022/10/15 03:44:55;;;;;;;;;;;;;;;13.77;72.64;100546.84;5037614;28;19983;-64
2022/10/15 03:47:20;;;;;;;;;;;;;;;13.77;72.50;100546.00;5041409;28;20305;-64
2022/10/15 03:49:46;;;;;;;;;;;;;;;13.78;72.54;100539.78;5045744;28;20018;-64
2022/10/15 03:52:11;;;;;;;;;;;;;;;13.78;72.72;100542.41;5046998;28;19929;-65
2022/10/15 03:54:36;;;;;;;;;;;;;;;13.79;72.57;100544.09;5046709;28;19968;-62
2022/10/15 03:57:02;;;;;;;;;;;;;;;13.80;72.64;100545.78;5046513;28;19995;-64
2022/10/15 03:59:27;;;;;;;;;;;;;;;13.79;72.67;100542.28;5046458;28;19921;-65
2022/10/15 04:01:52;;;;;;;;;;;;;;;13.79;72.87;100534.34;5042990;28;20155;-65
2022/10/15 04:04:17;;;;;;;;;;;;;;;13.79;72.76;100531.72;5052376;28;19932;-65
2022/10/15 04:06:46;;;;;;;;;;;;;;;13.81;72.82;100531.63;5045922;28;20002;-64
2022/10/15 04:09:12;;;;;;;;;;;;;;;13.81;72.79;100523.69;5049749;28;19948;-66
2022/10/15 04:11:37;;;;;;;;;;;;;;;13.82;73.01;100530.66;5047714;28;19925;-63
2022/10/15 04:14:02;;;;;;;;;;;;;;;13.82;72.91;100525.38;5049712;28;19917;-63
2022/10/15 04:16:28;;;;;;;;;;;;;;;13.82;72.97;100528.84;5049998;28;19999;-64
2022/10/15 04:18:53;;;;;;;;;;;;;;;13.82;72.85;100525.38;5047994;28;19925;-64
2022/10/15 04:21:20;;;;;;;;;;;;;;;13.83;72.91;100529.69;5046388;28;19924;-65
2022/10/15 04:23:45;;;;;;;;;;;;;;;13.84;73.17;100526.09;5045472;28;19913;-65
2022/10/15 04:26:10;;;;;;;;;;;;;;;13.83;72.96;100525.25;5042907;28;20321;-65
2022/10/15 04:28:36;;;;;;;;;;;;;;;13.85;73.07;100525.13;5051948;28;19956;-64
2022/10/15 04:31:02;;;;;;;;;;;;;;;13.84;73.05;100521.63;5044356;28;20242;-64
2022/10/15 04:33:27;;;;;;;;;;;;;;;13.85;73.14;100525.13;5046964;28;20382;-64
2022/10/15 04:36:03;;;;;;;;;;;;;;;13.84;73.22;100519.00;5049901;28;19956;-65
2022/10/15 04:38:29;;;;;;;;;;;;;;;13.84;73.20;100526.09;5053296;28;20386;-63
2022/10/15 04:41:12;;;;;;;;;;;;;;;13.85;73.21;100522.47;5051830;28;19916;-65
2022/10/15 04:43:38;;;;;;;;;;;;;;;13.86;73.21;100526.81;5052093;28;19975;-65
2022/10/15 04:46:04;;;;;;;;;;;;;;;13.87;73.19;100520.56;5049638;28;20330;-64
2022/10/15 04:48:31;;;;;;;;;;;;;;;13.87;73.20;100524.06;5048886;28;19916;-63
2022/10/15 04:51:06;;;;;;;;;;;;;;;13.88;73.28;100527.53;5044661;28;19952;-63
2022/10/15 04:53:31;;;;;;;;;;;;;;;13.88;73.26;100519.59;5044608;28;19921;-64
2022/10/15 04:56:03;;;;;;;;;;;;;;;13.88;73.27;100524.88;5046124;28;20441;-64
2022/10/15 04:58:29;;;;;;;;;;;;;;;13.91;73.41;100522.03;5051360;28;19924;-64
2022/10/15 05:00:57;;;;;;;;;;;;;;;13.93;73.33;100528.03;5045321;28;19920;-65
2022/10/15 05:03:23;;;;;;;;;;;;;;;13.94;73.41;100528.88;5051690;28;19964;-64
2022/10/15 05:05:48;;;;;;;;;;;;;;;13.95;73.50;100526.13;5046200;28;19975;-65
2022/10/15 05:08:13;;;;;;;;;;;;;;;13.95;73.44;100528.78;5049679;28;20007;-64
2022/10/15 05:10:39;;;;;;;;;;;;;;;13.97;73.26;100524.22;5043630;28;19921;-63
2022/10/15 05:13:04;;;;;;;;;;;;;;;13.98;73.52;100528.53;5045097;28;19932;-64
2022/10/15 05:15:29;;;;;;;;;;;;;;;13.99;73.39;100524.91;5046965;28;20008;-64
2022/10/15 05:17:55;;;;;;;;;;;;;;;14.00;73.44;100525.78;5051529;28;20008;-61
2022/10/15 05:20:20;;;;;;;;;;;;;;;14.01;73.51;100524.81;5043183;28;20375;-61
2022/10/15 05:22:45;;;;;;;;;;;;;;;13.99;73.55;100524.91;5041399;28;19929;-60
2022/10/15 05:25:10;;;;;;;;;;;;;;;14.00;73.52;100531.06;5037796;28;20386;-61
2022/10/15 05:27:36;;;;;;;;;;;;;;;14.01;73.59;100522.16;5051461;28;19936;-62
2022/10/15 05:30:01;;;;;;;;;;;;;;;14.01;73.61;100527.47;5043117;28;20020;-62
2022/10/15 05:32:27;;;;;;;;;;;;;;;14.02;73.79;100527.34;5032098;28;19924;-59
2022/10/15 05:34:52;;;;;;;;;;;;;;;14.03;73.64;100536.97;5041396;28;19948;-62
2022/10/15 05:37:17;;;;;;;;;;;;;;;14.03;73.63;100531.66;5047394;28;19978;-60
2022/10/15 05:39:42;;;;;;;;;;;;;;;14.05;73.69;100536.00;5045860;28;19935;-67
2022/10/15 05:42:09;;;;;;;;;;;;;;;14.05;73.82;100533.34;5046382;28;19975;-62
2022/10/15 05:44:34;;;;;;;;;;;;;;;14.06;73.91;100538.56;5037786;28;19913;-60
2022/10/15 05:46:59;;;;;;;;;;;;;;;14.06;73.88;100541.19;5044989;28;19928;-58
2022/10/15 05:49:25;;;;;;;;;;;;;;;14.05;73.86;100536.84;5046901;28;20003;-60
2022/10/15 05:51:50;;;;;;;;;;;;;;;14.07;73.92;100542.84;5048156;28;19967;-58
2022/10/15 05:54:15;;;;;;;;;;;;;;;14.08;73.96;100543.72;5046106;28;19921;-60
2022/10/15 05:56:40;;;;;;;;;;;;;;;14.09;74.07;100545.41;5045486;28;19921;-58
2022/10/15 05:59:09;;;;;;;;;;;;;;;14.08;73.86;100543.72;5049705;28;19932;-58
2022/10/15 06:01:36;;;;;;;;;;;;;;;14.10;73.96;100544.44;5047526;28;20305;-63
2022/10/15 06:04:02;;;;;;;;;;;;;;;14.12;74.00;100548.66;5048715;28;20011;-59
2022/10/15 06:06:30;;;;;;;;;;;;;;;14.12;73.97;100547.81;5048035;28;20027;-61
2022/10/15 06:08:57;;;;;;;;;;;;;;;14.14;73.82;100548.56;5048547;28;19925;-65
2022/10/15 06:11:22;;;;;;;;;;;;;;;14.15;74.00;100558.16;5049150;28;19960;-58
2022/10/15 06:13:48;;;;;;;;;;;;;;;14.15;74.08;100556.34;5049148;28;19928;-59
2022/10/15 06:16:15;;;;;;;;;;;;;;;14.16;74.13;100557.19;5050059;28;19931;-63
2022/10/15 06:18:40;;;;;;;;;;;;;;;14.18;73.98;100561.44;5048022;28;19917;-58
2022/10/15 06:21:06;;;;;;;;;;;;;;;14.19;74.06;100554.31;5042499;28;19932;-61
2022/10/15 06:23:31;;;;;;;;;;;;;;;14.20;74.07;100560.47;5045958;28;20020;-62
2022/10/15 06:26:00;;;;;;;;;;;;;;;14.21;74.09;100557.69;5048371;28;20016;-61
2022/10/15 06:28:25;;;;;;;;;;;;;;;14.22;73.83;100564.66;5049076;28;19921;-59
2022/10/15 06:30:51;;;;;;;;;;;;;;;14.23;74.02;100563.72;5046756;28;19913;-61
2022/10/15 06:33:16;;;;;;;;;;;;;;;14.24;74.06;100568.06;5049415;28;19952;-58
2022/10/15 06:35:42;;;;;;;;;;;;;;;14.27;74.02;100565.19;5050160;28;19917;-65
2022/10/15 06:38:07;;;;;;;;;;;;;;;14.28;74.13;100574.81;5049188;28;20576;-64
2022/10/15 06:40:32;;;;;;;;;;;;;;;14.31;74.02;100571.91;5046027;28;19956;-64
2022/10/15 06:43:04;;;;;;;;;;;;;;;14.33;74.10;100575.28;5046493;28;20335;-66
2022/10/15 06:45:31;;;;;;;;;;;;;;;14.35;74.02;100576.97;5043171;28;20465;-62
2022/10/15 06:47:56;;;;;;;;;;;;;;;14.36;74.08;100568.94;5041681;28;20123;-62
2022/10/15 06:50:22;;;;;;;;;;;;;;;14.37;74.07;100581.16;5051433;28;20347;-60
2022/10/15 06:52:47;;;;;;;;;;;;;;;14.38;74.14;100572.28;5045096;28;19921;-60
2022/10/15 06:55:12;;;;;;;;;;;;;;;14.41;74.02;100581.81;5046984;28;19924;-66
2022/10/15 06:57:37;;;;;;;;;;;;;;;14.43;74.15;100580.72;5043686;28;19921;-59
2022/10/15 07:00:03;;;;;;;;;;;;;;;14.45;74.02;100578.78;5043729;28;19982;-62
2022/10/15 07:02:28;;;;;;;;;;;;;;;14.47;73.97;100581.31;5042363;28;19929;-64
2022/10/15 07:04:54;;;;;;;;;;;;;;;14.47;74.09;100582.19;5051711;28;20432;-60
2022/10/15 07:07:19;;;;;;;;;;;;;;;14.50;74.03;100581.09;5044625;28;19975;-61
2022/10/15 07:09:46;;;;;;;;;;;;;;;14.50;74.09;100581.09;5048661;28;19916;-59
2022/10/15 07:12:11;;;;;;;;;;;;;;;14.53;74.19;100585.28;5046317;28;19929;-62
2022/10/15 07:14:37;;;;;;;;;;;;;;;14.54;74.07;100587.84;5047097;28;19947;-63
2022/10/15 07:17:02;;;;;;;;;;;;;;;14.57;74.11;100586.75;5044001;28;20316;-64
2022/10/15 07:19:27;;;;;;;;;;;;;;;14.58;74.20;100593.72;5045186;28;19920;-60
2022/10/15 07:21:53;;;;;;;;;;;;;;;14.60;73.91;100597.94;5043655;28;19932;-59
2022/10/15 07:24:18;;;;;;;;;;;;;;;14.60;74.11;100591.81;5047221;28;19967;-61
2022/10/15 07:26:45;;;;;;;;;;;;;;;14.61;74.12;100598.78;5048314;28;19932;-61
2022/10/15 07:29:11;;;;;;;;;;;;;;;14.62;74.08;100596.03;5042036;28;19925;-61
2022/10/15 07:31:36;;;;;;;;;;;;;;;14.63;74.01;100608.31;5049300;28;20148;-60
2022/10/15 07:34:01;;;;;;;;;;;;;;;14.63;74.10;100602.19;5047484;28;19925;-63
2022/10/15 07:36:27;;;;;;;;;;;;;;;14.61;74.13;100607.56;5045824;28;20112;-59
2022/10/15 07:38:52;;;;;;;;;;;;;;;14.61;74.24;100610.22;5042518;28;19971;-59
2022/10/15 07:41:18;;;;;;;;;;;;;;;14.62;74.20;100621.66;5041042;28;19972;-61
2022/10/15 07:43:43;;;;;;;;;;;;;;;14.64;74.30;100620.56;5037446;28;19925;-60
2022/10/15 07:46:09;;;;;;;;;;;;;;;14.66;74.38;100620.47;5048389;28;19931;-61
2022/10/15 07:48:34;;;;;;;;;;;;;;;14.70;74.34;100626.41;5046702;28;20570;-63
2022/10/15 07:51:00;;;;;;;;;;;;;;;14.72;74.38;100627.13;5051108;28;20429;-64
2022/10/15 07:53:26;;;;;;;;;;;;;;;14.75;74.27;100626.88;5047270;28;19928;-67
2022/10/15 07:55:51;;;;;;;;;;;;;;;14.78;74.25;100634.59;5048785;28;19913;-61
2022/10/15 07:58:17;;;;;;;;;;;;;;;14.79;74.38;100633.63;5043716;28;19920;-60
2022/10/15 08:00:43;;;;;;;;;;;;;;;14.81;74.48;100634.34;5051855;28;19921;-61
2022/10/15 08:03:08;;;;;;;;;;;;;;;14.85;74.45;100637.59;5044383;28;19925;-61
2022/10/15 08:05:33;;;;;;;;;;;;;;;14.86;74.46;100629.56;5047607;28;20434;-64
2022/10/15 08:07:59;;;;;;;;;;;;;;;14.89;74.31;100629.31;5047349;28;19924;-61
2022/10/15 08:10:24;;;;;;;;;;;;;;;14.89;74.46;100634.63;5046907;28;20574;-59
2022/10/15 08:12:49;;;;;;;;;;;;;;;14.90;74.47;100635.44;5039709;28;19944;-61
2022/10/15 08:15:15;;;;;;;;;;;;;;;14.90;74.50;100630.97;5045177;28;19944;-62
2022/10/15 08:17:41;;;;;;;;;;;;;;;14.92;74.67;100634.34;5044568;28;19920;-61
2022/10/15 08:20:06;;;;;;;;;;;;;;;14.96;74.50;100634.13;5045859;28;19912;-62
2022/10/15 08:22:32;;;;;;;;;;;;;;;14.98;74.46;100626.91;5042113;28;19928;-65
2022/10/15 08:24:57;;;;;;;;;;;;;;;15.00;74.64;100627.63;5039988;28;19928;-62
2022/10/15 08:27:23;;;;;;;;;;;;;;;15.04;74.70;100631.75;5041956;28;19987;-58
2022/10/15 08:29:48;;;;;;;;;;;;;;;15.08;74.69;100638.47;5042323;28;19935;-61
2022/10/15 08:32:13;;;;;;;;;;;;;;;15.12;74.72;100639.91;5041676;28;20402;-63
2022/10/15 08:34:38;;;;;;;;;;;;;;;15.16;74.47;100637.84;5043623;28;19975;-60
2022/10/15 08:37:04;;;;;;;;;;;;;;;15.21;74.41;100633.88;5044070;28;20039;-62
2022/10/15 08:39:29;;;;;;;;;;;;;;;15.26;74.39;100637.97;5043936;28;19925;-60
2022/10/15 08:42:02;;;;;;;;;;;;;;;15.28;74.35;100639.53;5044483;28;20329;-60
2022/10/15 08:44:37;;;;;;;;;;;;;;;15.31;74.31;100639.28;5037755;28;19924;-64
2022/10/15 08:47:11;;;;;;;;;;;;;;;15.34;74.29;100635.56;5044376;28;19920;-65
2022/10/15 08:49:46;;;;;;;;;;;;;;;15.35;74.20;100646.03;5043381;28;20015;-64
2022/10/15 08:52:14;;;;;;;;;;;;;;;15.38;74.26;100643.16;5047454;28;20011;-63
2022/10/15 08:54:40;;;;;;;;;;;;;;;15.40;74.21;100645.66;5045508;28;20360;-64
2022/10/15 08:57:17;;;;;;;;;;;;;;;15.44;74.29;100647.13;5041755;28;19948;-65
2022/10/15 08:59:52;;;;;;;;;;;;;;;15.48;74.14;100645.91;5045081;28;19920;-64
2022/10/15 09:02:21;;;;;;;;;;;;;;;15.52;74.01;100647.34;5042584;28;19935;-64
2022/10/15 09:04:59;;;;;;;;;;;;;;;15.55;74.08;100649.75;5043725;28;20023;-64
2022/10/15 09:07:33;;;;;;;;;;;;;;;15.59;74.01;100653.00;5043849;28;19929;-61
2022/10/15 09:10:11;;;;;;;;;;;;;;;15.62;73.95;100654.56;5048165;28;20003;-64
2022/10/15 09:13:00;;;;;;;;;;;;;;;15.62;74.00;100654.56;5047008;28;20389;-63
2022/10/15 09:15:27;;;;;;;;;;;;;;;15.62;73.97;100663.34;5043260;28;20363;-61
2022/10/15 09:17:53;;;;;;;;;;;;;;;15.65;74.06;100656.97;5047108;28;19925;-62
2022/10/15 09:20:36;;;;;;;;;;;;;;;15.67;74.03;100665.63;5046244;28;19931;-63
2022/10/15 09:23:02;;;;;;;;;;;;;;;15.70;73.97;100666.25;5047482;28;19982;-65
2022/10/15 09:25:33;;;;;;;;;;;;;;;15.74;73.87;100669.50;5046349;28;19975;-64
2022/10/15 09:28:05;;;;;;;;;;;;;;;15.78;73.97;100676.25;5045358;28;19921;-63
2022/10/15 09:30:50;;;;;;;;;;;;;;;15.81;73.82;100673.31;5044821;28;19925;-63
2022/10/15 09:33:37;;;;;;;;;;;;;;;15.81;73.78;100673.31;5046495;28;19928;-66
2022/10/15 09:36:28;;;;;;;;;;;;;;;15.85;73.72;100669.47;5050059;28;19920;-64
2022/10/15 09:38:59;;;;;;;;;;;;;;;15.91;73.80;100670.78;5049103;28;19966;-65
2022/10/15 09:41:39;;;;;;;;;;;;;;;15.95;73.73;100668.75;5044452;28;19924;-65
2022/10/15 09:44:12;;;;;;;;;;;;;;;16.00;73.80;100666.53;5046739;28;19923;-64
2022/10/15 09:46:44;;;;;;;;;;;;;;;16.02;73.67;100675.22;5048485;28;20611;-64
2022/10/15 09:49:17;;;;;;;;;;;;;;;16.05;73.62;100674.97;5044028;28;19917;-63
2022/10/15 09:51:49;;;;;;;;;;;;;;;16.07;73.65;100675.69;5051473;28;20210;-62
2022/10/15 09:54:24;;;;;;;;;;;;;;;16.08;73.58;100676.53;5049084;28;19917;-65
2022/10/15 09:56:53;;;;;;;;;;;;;;;16.10;73.57;100679.91;5048866;28;20019;-64
2022/10/15 09:59:19;;;;;;;;;;;;;;;16.06;73.53;100681.13;5052092;28;19920;-65
2022/10/15 10:02:05;;;;;;;;;;;;;;;16.03;73.54;100676.91;5048399;28;20044;-64
2022/10/15 10:04:31;;;;;;;;;;;;;;;16.05;73.65;100682.09;5025550;28;20603;-64
2022/10/15 10:06:58;;;;;;;;;;;;;;;16.06;73.61;100679.31;5033443;28;20195;-65
2022/10/15 10:09:25;;;;;;;;;;;;;;;16.10;73.71;100678.13;5048802;28;19920;-64
2022/10/15 10:11:52;;;;;;;;;;;;;;;16.15;73.48;100680.38;5047408;28;20411;-65
2022/10/15 10:14:32;;;;;;;;;;;;;;;16.16;73.38;100674.09;5049883;28;20463;-63
2022/10/15 10:17:13;;;;;;;;;;;;;;;16.17;73.43;100682.91;5048662;28;19931;-63
2022/10/15 10:19:39;;;;;;;;;;;;;;;16.17;73.50;100683.75;5049147;28;19921;-64
2022/10/15 10:22:10;;;;;;;;;;;;;;;16.14;73.43;100679.53;5040628;28;19931;-64
2022/10/15 10:24:36;;;;;;;;;;;;;;;16.15;73.52;100686.53;5044733;28;20283;-65
2022/10/15 10:27:01;;;;;;;;;;;;;;;16.15;73.26;100675.91;5043708;28;19959;-65
2022/10/15 10:29:28;;;;;;;;;;;;;;;16.15;73.47;100675.91;5043512;28;20058;-64
2022/10/15 10:31:53;;;;;;;;;;;;;;;16.20;73.44;100680.00;5049257;28;19916;-65
2022/10/15 10:34:26;;;;;;;;;;;;;;;16.24;73.31;100670.81;5044314;28;19925;-65
2022/10/15 10:36:52;;;;;;;;;;;;;;;16.28;73.25;100683.69;5046973;28;19959;-66
2022/10/15 10:39:17;;;;;;;;;;;;;;;16.32;73.23;100686.94;5049677;28;19928;-64
2022/10/15 10:41:47;;;;;;;;;;;;;;;16.38;73.20;100694.41;5047946;28;19920;-62
2022/10/15 10:44:25;;;;;;;;;;;;;;;16.39;72.96;100688.13;5044319;28;19925;-64
2022/10/15 10:47:00;;;;;;;;;;;;;;;16.43;73.02;100686.88;5045783;28;20160;-64
2022/10/15 10:49:36;;;;;;;;;;;;;;;16.47;73.04;100690.16;5044668;28;20408;-64
2022/10/15 10:52:02;;;;;;;;;;;;;;;16.52;72.91;100692.41;5046498;28;19921;-64
2022/10/15 10:54:29;;;;;;;;;;;;;;;16.59;72.77;100690.91;5046241;28;19919;-64
2022/10/15 10:56:55;;;;;;;;;;;;;;;16.63;72.63;100689.69;5048091;28;19925;-65
2022/10/15 10:59:20;;;;;;;;;;;;;;;16.66;72.45;100697.41;5050261;28;19981;-64
2022/10/15 11:01:46;;;;;;;;;;;;;;;16.68;72.18;100698.13;5044290;28;19941;-65
2022/10/15 11:04:20;;;;;;;;;;;;;;;16.70;72.15;100692.66;5048873;28;19924;-63
2022/10/15 11:06:55;;;;;;;;;;;;;;;16.70;72.18;100687.34;5048896;28;19927;-64
2022/10/15 11:09:29;;;;;;;;;;;;;;;16.71;72.21;100684.53;5046444;28;19928;-65
2022/10/15 11:11:55;;;;;;;;;;;;;;;16.72;72.32;100683.56;5045303;28;19920;-65
2022/10/15 11:14:20;;;;;;;;;;;;;;;16.75;72.35;100677.19;5044749;28;19932;-65
2022/10/15 11:16:53;;;;;;;;;;;;;;;16.78;72.29;100687.56;5045679;28;19943;-65
2022/10/15 11:19:23;;;;;;;;;;;;;;;16.82;72.13;100683.63;5042415;28;19921;-65
2022/10/15 11:21:48;;;;;;;;;;;;;;;16.86;72.08;100678.94;5049547;28;19921;-65
2022/10/15 11:24:38;;;;;;;;;;;;;;;16.86;71.96;100674.44;5049407;28;20333;-63
2022/10/15 11:27:13;;;;;;;;;;;;;;;16.91;71.92;100676.69;5046324;28;19920;-63
2022/10/15 11:29:45;;;;;;;;;;;;;;;16.96;71.73;100685.16;5051952;28;19916;-65
2022/10/15 11:32:19;;;;;;;;;;;;;;;17.01;71.65;100682.09;5046334;28;19948;-66
2022/10/15 11:34:47;;;;;;;;;;;;;;;17.03;71.50;100678.31;5047264;28;19924;-65
2022/10/15 11:37:15;;;;;;;;;;;;;;;17.09;71.41;100674.31;5049482;28;19921;-66
2022/10/15 11:39:59;;;;;;;;;;;;;;;17.13;71.25;100674.88;5041003;28;20270;-65
2022/10/15 11:42:27;;;;;;;;;;;;;;;17.18;71.31;100672.66;5046345;28;20007;-64
2022/10/15 11:44:58;;;;;;;;;;;;;;;17.22;71.30;100676.75;5041905;28;19952;-64
2022/10/15 11:47:31;;;;;;;;;;;;;;;17.28;70.97;100678.00;5043440;28;19962;-64
2022/10/15 11:50:05;;;;;;;;;;;;;;;17.33;70.79;100670.50;5042285;28;19917;-65
2022/10/15 11:52:30;;;;;;;;;;;;;;;17.39;70.76;100677.94;5044231;28;19925;-65
2022/10/15 11:55:14;;;;;;;;;;;;;;;17.44;70.47;100682.84;5042556;28;19916;-64
2022/10/15 11:57:42;;;;;;;;;;;;;;;17.45;70.33;100681.88;5042497;28;19927;-65
2022/10/15 12:00:10;;;;;;;;;;;;;;;17.46;70.27;100675.59;5045960;28;19929;-64
2022/10/15 12:02:36;;;;;;;;;;;;;;;17.44;70.34;100678.34;5041518;28;20376;-65
2022/10/15 12:05:07;;;;;;;;;;;;;;;17.44;70.17;100681.03;5039068;28;19944;-64
2022/10/15 12:07:43;;;;;;;;;;;;;;;17.46;70.03;100672.94;5039378;28;19925;-64
2022/10/15 12:10:29;;;;;;;;;;;;;;;17.50;69.89;100676.97;5040321;28;19932;-64
2022/10/15 12:13:02;;;;;;;;;;;;;;;17.53;70.06;100674.03;5007045;28;19996;-65
2022/10/15 12:15:37;;;;;;;;;;;;;;;17.57;69.79;100670.16;5038376;28;20370;-64
2022/10/15 12:18:09;;;;;;;;;;;;;;;17.61;69.76;100671.56;5046900;28;19918;-64
2022/10/15 12:20:35;;;;;;;;;;;;;;;17.65;69.65;100658.81;5044449;28;19920;-65
2022/10/15 12:23:01;;;;;;;;;;;;;;;17.65;69.46;100659.66;5049690;28;19924;-64
2022/10/15 12:25:32;;;;;;;;;;;;;;;17.66;69.64;100661.34;5047715;28;19916;-64
2022/10/15 12:28:07;;;;;;;;;;;;;;;17.66;69.51;100658.66;5047552;28;19989;-65
2022/10/15 12:30:35;;;;;;;;;;;;;;;17.70;69.27;100656.56;5047912;28;19920;-66
2022/10/15 12:33:19;;;;;;;;;;;;;;;17.72;69.06;100659.13;5046554;28;19921;-65
2022/10/15 12:35:51;;;;;;;;;;;;;;;17.73;69.18;100656.31;5046793;28;19924;-65
2022/10/15 12:38:20;;;;;;;;;;;;;;;17.74;69.20;100657.16;5046641;28;19917;-62
2022/10/15 12:40:46;;;;;;;;;;;;;;;17.77;69.03;100662.22;5044300;28;19970;-63
2022/10/15 12:43:16;;;;;;;;;;;;;;;17.80;68.98;100651.25;5043141;28;19924;-64